Time;durP1;ratioP1;P1;durP2;ratioP2;P2;SDS_P1;SDS_P2;PMS_P1;PMS_P2;Temp;Humidity;BMP_temperature;BMP_pressure;BME280_temperature;BME280_humidity;BME280_pressure;Samples;Min_cycle;Max_cycle;Signal;HPM_P1;HPM_P2
2023/06/21 00:01:11;;;;;;;5.28;4.57;;;22.00;82.60;;;;;;5030351;28;20103;-46
2023/06/21 00:03:38;;;;;;;5.28;4.75;;;22.00;83.10;;;;;;5030192;28;20064;-45
2023/06/21 00:06:07;;;;;;;6.63;4.95;;;22.00;82.50;;;;;;5025829;28;20060;-46
2023/06/21 00:08:34;;;;;;;5.22;4.72;;;21.90;82.60;;;;;;5029181;28;20046;-45
2023/06/21 00:11:04;;;;;;;4.97;4.43;;;21.90;82.50;;;;;;5030613;28;20116;-45
2023/06/21 00:13:34;;;;;;;5.18;4.68;;;21.90;82.50;;;;;;5029741;28;20084;-47
2023/06/21 00:16:01;;;;;;;5.65;4.85;;;21.90;82.40;;;;;;5028010;28;20128;-45
2023/06/21 00:18:27;;;;;;;6.03;5.43;;;21.80;82.40;;;;;;5013915;28;20065;-45
2023/06/21 00:20:59;;;;;;;8.25;4.72;;;21.80;82.60;;;;;;5030274;28;20056;-45
2023/06/21 00:23:27;;;;;;;6.53;4.60;;;21.80;82.50;;;;;;5026024;28;20097;-46
2023/06/21 00:25:54;;;;;;;5.30;4.80;;;21.80;82.50;;;;;;5029521;28;20041;-46
2023/06/21 00:28:21;;;;;;;7.50;5.88;;;21.80;82.60;;;;;;5031150;28;20041;-45
2023/06/21 00:30:51;;;;;;;5.93;5.32;;;21.70;82.80;;;;;;5029854;28;20788;-45
2023/06/21 00:33:20;;;;;;;5.53;4.85;;;21.70;83.00;;;;;;5007985;28;20045;-46
2023/06/21 00:35:52;;;;;;;5.45;4.93;;;21.70;83.20;;;;;;5029842;28;20069;-45
2023/06/21 00:38:23;;;;;;;5.68;5.10;;;21.70;83.20;;;;;;5024066;28;20426;-45
2023/06/21 00:40:52;;;;;;;5.82;5.22;;;21.80;83.20;;;;;;5029903;28;20041;-47
2023/06/21 00:43:20;;;;;;;6.93;4.50;;;21.70;83.70;;;;;;5003401;28;20042;-45
2023/06/21 00:45:48;;;;;;;7.30;5.05;;;21.70;83.10;;;;;;5029509;28;20116;-49
2023/06/21 00:48:17;;;;;;;6.50;4.50;;;21.70;83.20;;;;;;5005300;28;20073;-48
2023/06/21 00:50:45;;;;;;;5.32;4.82;;;21.60;83.20;;;;;;5028103;23;20050;-46
2023/06/21 00:53:14;;;;;;;7.07;5.20;;;21.60;83.20;;;;;;4987961;28;20038;-47
2023/06/21 00:55:44;;;;;;;5.32;4.82;;;21.60;83.30;;;;;;5004351;28;20046;-46
2023/06/21 00:58:12;;;;;;;5.70;4.97;;;21.60;83.30;;;;;;4993296;28;20070;-47
2023/06/21 01:00:41;;;;;;;5.85;4.72;;;21.50;83.30;;;;;;5009327;28;20038;-47
2023/06/21 01:03:10;;;;;;;5.53;5.03;;;21.50;83.20;;;;;;4994488;28;20109;-46
2023/06/21 01:05:38;;;;;;;6.03;4.65;;;21.50;83.30;;;;;;4976217;28;20154;-48
2023/06/21 01:08:30;;;;;;;8.85;5.00;;;21.50;83.40;;;;;;4974878;28;20050;-48
2023/06/21 01:11:15;;;;;;;5.68;4.55;;;21.50;83.40;;;;;;4991001;28;20052;-47
2023/06/21 01:14:31;;;;;;;8.30;5.50;;;21.50;83.40;;;;;;4982593;28;20054;-47
2023/06/21 01:17:07;;;;;;;7.35;4.88;;;21.40;83.70;;;;;;4968741;28;20075;-48
2023/06/21 01:19:56;;;;;;;5.75;4.55;;;21.40;83.50;;;;;;5001585;28;20113;-46
2023/06/21 01:22:40;;;;;;;5.90;5.30;;;21.40;83.70;;;;;;4985641;28;20038;-48
2023/06/21 01:25:16;;;;;;;4.97;4.57;;;21.40;83.60;;;;;;4984049;28;20039;-47
2023/06/21 01:28:14;;;;;;;5.45;4.90;;;21.40;83.60;;;;;;4973507;28;20068;-47
2023/06/21 01:30:42;;;;;;;9.13;5.95;;;21.30;83.50;;;;;;4987338;28;20137;-47
2023/06/21 01:33:13;;;;;;;5.35;4.80;;;21.30;83.40;;;;;;4997604;28;20051;-48
2023/06/21 01:35:41;;;;;;;6.03;4.95;;;21.30;83.50;;;;;;4980968;28;20073;-51
2023/06/21 01:38:15;;;;;;;7.03;5.53;;;21.20;83.50;;;;;;4992316;28;20041;-51
2023/06/21 01:40:47;;;;;;;6.90;5.30;;;21.20;83.50;;;;;;4980155;28;20050;-47
2023/06/21 01:43:14;;;;;;;6.82;5.70;;;21.20;83.50;;;;;;4993021;28;20456;-51
2023/06/21 01:45:41;;;;;;;6.50;5.90;;;21.20;83.70;;;;;;5008757;28;20073;-50
2023/06/21 01:48:10;;;;;;;6.47;5.88;;;21.10;83.70;;;;;;4992210;28;20498;-50
2023/06/21 01:50:40;;;;;;;6.68;5.68;;;21.10;83.90;;;;;;4992516;28;20042;-47
2023/06/21 01:53:13;;;;;;;6.50;5.68;;;21.10;84.00;;;;;;5002563;28;20605;-49
2023/06/21 01:55:48;;;;;;;7.10;6.03;;;21.00;84.20;;;;;;4992195;28;20080;-47
2023/06/21 01:58:17;;;;;;;6.85;5.88;;;21.10;84.50;;;;;;4991823;28;20544;-51
2023/06/21 02:00:45;;;;;;;7.80;6.40;;;21.00;84.50;;;;;;4990781;28;20042;-51
2023/06/21 02:03:14;;;;;;;6.97;6.20;;;21.00;84.60;;;;;;4971705;28;20081;-50
2023/06/21 02:05:42;;;;;;;7.85;6.13;;;21.00;84.70;;;;;;5004343;28;20121;-50
2023/06/21 02:08:17;;;;;;;6.85;6.15;;;21.00;84.80;;;;;;4992355;28;20053;-49
2023/06/21 02:10:47;;;;;;;6.38;5.78;;;21.00;84.80;;;;;;5005291;28;20482;-47
2023/06/21 02:13:17;;;;;;;6.82;6.15;;;21.10;84.90;;;;;;4968927;28;20044;-52
2023/06/21 02:15:46;;;;;;;6.32;5.68;;;21.00;84.80;;;;;;4991306;28;20077;-51
2023/06/21 02:18:20;;;;;;;8.70;6.47;;;21.00;84.80;;;;;;5009665;28;20116;-51
2023/06/21 02:20:47;;;;;;;6.85;6.00;;;21.00;84.70;;;;;;4980358;28;20053;-51
2023/06/21 02:23:14;;;;;;;7.40;6.22;;;21.00;84.50;;;;;;5006679;28;20039;-49
2023/06/21 02:25:52;;;;;;;7.43;6.18;;;21.00;84.50;;;;;;5003825;28;20038;-51
2023/06/21 02:28:22;;;;;;;6.55;5.95;;;21.00;84.40;;;;;;4995340;28;20049;-50
2023/06/21 02:31:01;;;;;;;7.15;5.82;;;21.00;84.30;;;;;;4986576;28;20141;-51
2023/06/21 02:33:31;;;;;;;7.80;5.82;;;21.00;84.20;;;;;;4994283;28;20056;-50
2023/06/21 02:35:58;;;;;;;6.95;6.13;;;20.90;84.10;;;;;;5008871;28;20042;-51
2023/06/21 02:38:26;;;;;;;7.10;5.65;;;20.90;84.10;;;;;;4979634;28;20037;-50
2023/06/21 02:41:02;;;;;;;7.53;6.45;;;20.90;84.00;;;;;;5005324;28;20108;-48
2023/06/21 02:43:33;;;;;;;6.45;5.43;;;20.90;83.90;;;;;;4997660;28;20038;-50
2023/06/21 02:46:03;;;;;;;5.78;5.18;;;20.90;83.80;;;;;;4994712;28;20129;-49
2023/06/21 02:48:30;;;;;;;10.70;5.97;;;20.80;83.70;;;;;;4995414;28;20130;-47
2023/06/21 02:51:02;;;;;;;6.50;5.55;;;20.80;83.70;;;;;;5000101;28;20402;-52
2023/06/21 02:53:29;;;;;;;7.05;5.40;;;20.80;83.70;;;;;;4970842;28;20074;-49
2023/06/21 02:55:58;;;;;;;6.75;6.05;;;20.70;83.70;;;;;;5005854;28;20065;-50
2023/06/21 02:58:25;;;;;;;9.27;5.03;;;20.70;83.80;;;;;;5005114;28;20129;-50
2023/06/21 03:00:58;;;;;;;6.50;5.90;;;20.60;83.80;;;;;;4994142;28;20145;-46
2023/06/21 03:03:25;;;;;;;8.90;5.50;;;20.60;83.90;;;;;;4986946;28;20042;-52
2023/06/21 03:05:53;;;;;;;7.90;5.80;;;20.60;83.90;;;;;;5003752;28;20760;-49
2023/06/21 03:08:22;;;;;;;6.47;5.88;;;20.60;83.90;;;;;;5012499;28;20042;-48
2023/06/21 03:10:52;;;;;;;10.65;6.68;;;20.60;84.00;;;;;;4993486;28;20049;-48
2023/06/21 03:13:25;;;;;;;7.43;5.88;;;20.50;84.10;;;;;;4970036;28;20050;-51
2023/06/21 03:15:54;;;;;;;6.28;5.32;;;20.50;84.30;;;;;;4978914;28;20073;-51
2023/06/21 03:18:21;;;;;;;5.82;5.20;;;20.50;84.40;;;;;;4994963;28;20140;-47
2023/06/21 03:20:50;;;;;;;9.57;5.72;;;20.50;84.50;;;;;;5008480;28;20042;-47
2023/06/21 03:23:17;;;;;;;7.35;5.53;;;20.50;84.50;;;;;;4977016;28;20050;-50
2023/06/21 03:25:52;;;;;;;6.43;5.32;;;20.50;84.50;;;;;;4999508;28;20100;-46
2023/06/21 03:28:23;;;;;;;6.38;5.78;;;20.50;84.50;;;;;;4993238;28;20077;-49
2023/06/21 03:30:49;;;;;;;8.65;6.20;;;20.40;84.50;;;;;;5010871;28;20099;-47
2023/06/21 03:33:20;;;;;;;7.97;6.53;;;20.50;84.60;;;;;;4979339;28;20563;-50
2023/06/21 03:35:47;;;;;;;6.53;5.80;;;20.40;84.50;;;;;;4999850;28;20503;-51
2023/06/21 03:38:17;;;;;;;7.22;6.22;;;20.40;84.50;;;;;;5012367;28;20081;-52
2023/06/21 03:40:45;;;;;;;6.25;5.65;;;20.50;84.60;;;;;;4993198;28;20049;-51
2023/06/21 03:43:13;;;;;;;7.75;6.15;;;20.40;84.60;;;;;;4988315;28;20154;-50
2023/06/21 03:45:44;;;;;;;;;;;20.40;84.50;;;;;;4974577;28;20069;-50
2023/06/21 03:48:11;;;;;;;7.38;6.28;;;20.40;84.80;;;;;;4992720;28;19921;-51
2023/06/21 03:50:38;;;;;;;7.78;6.90;;;20.40;84.80;;;;;;4997234;28;20050;-50
2023/06/21 03:53:07;;;;;;;9.85;8.23;;;20.40;85.20;;;;;;4972376;28;20660;-50
2023/06/21 03:55:38;;;;;;;12.70;9.00;;;20.40;85.70;;;;;;4996558;28;20050;-51
2023/06/21 03:58:08;;;;;;;8.90;8.00;;;20.40;86.20;;;;;;4994780;28;20045;-51
2023/06/21 04:00:34;;;;;;;8.98;8.07;;;20.50;86.40;;;;;;4993109;28;20044;-51
2023/06/21 04:03:01;;;;;;;8.75;7.85;;;20.50;86.70;;;;;;4977903;28;20077;-47
2023/06/21 04:05:28;;;;;;;10.27;8.52;;;20.60;86.90;;;;;;4974033;28;20049;-48
2023/06/21 04:07:55;;;;;;;9.73;8.15;;;20.60;87.00;;;;;;5006148;28;20050;-51
2023/06/21 04:10:26;;;;;;;8.90;7.93;;;20.70;87.10;;;;;;4988555;28;20061;-47
2023/06/21 04:13:04;;;;;;;10.65;8.68;;;20.70;87.10;;;;;;4971626;28;20577;-47
2023/06/21 04:15:41;;;;;;;10.07;9.02;;;20.70;87.30;;;;;;4979659;28;20459;-49
2023/06/21 04:18:08;;;;;;;12.65;9.88;;;20.80;87.20;;;;;;5010679;28;20100;-49
2023/06/21 04:20:37;;;;;;;9.57;8.68;;;20.80;87.20;;;;;;4986107;28;20042;-50
2023/06/21 04:23:04;;;;;;;10.70;9.60;;;20.90;87.70;;;;;;4974852;28;20665;-50
2023/06/21 04:25:30;;;;;;;12.07;9.35;;;20.90;87.30;;;;;;4996270;28;20041;-48
2023/06/21 04:27:57;;;;;;;11.27;9.75;;;21.00;87.40;;;;;;5011448;28;20041;-51
2023/06/21 04:30:24;;;;;;;13.23;9.57;;;21.00;87.30;;;;;;4992224;28;20096;-48
2023/06/21 04:32:52;;;;;;;10.20;9.15;;;21.10;87.30;;;;;;5005395;28;20065;-51
2023/06/21 04:35:22;;;;;;;11.57;9.13;;;21.10;87.20;;;;;;4996137;28;20415;-51
2023/06/21 04:37:49;;;;;;;11.05;9.35;;;21.20;87.20;;;;;;5001488;28;20038;-47
2023/06/21 04:40:18;;;;;;;11.45;10.30;;;21.20;87.30;;;;;;5001327;28;20057;-48
2023/06/21 04:42:47;;;;;;;11.65;10.15;;;21.20;87.20;;;;;;4990620;28;20038;-51
2023/06/21 04:45:16;;;;;;;11.48;9.77;;;21.30;87.20;;;;;;4989834;28;20471;-51
2023/06/21 04:47:46;;;;;;;10.35;9.35;;;21.30;87.20;;;;;;4987967;28;20045;-50
2023/06/21 04:50:14;;;;;;;12.05;10.10;;;21.30;87.30;;;;;;4986540;28;20043;-48
2023/06/21 04:52:48;;;;;;;11.15;9.80;;;21.40;87.40;;;;;;4987418;28;20073;-50
2023/06/21 04:55:19;;;;;;;13.65;9.68;;;21.40;87.40;;;;;;4988558;28;20038;-48
2023/06/21 04:57:47;;;;;;;10.60;9.52;;;21.40;87.50;;;;;;4985218;28;20090;-46
2023/06/21 05:00:15;;;;;;;11.38;10.13;;;21.50;87.50;;;;;;4988402;28;20042;-48
2023/06/21 05:02:42;;;;;;;13.70;10.30;;;21.50;87.50;;;;;;4992173;28;20038;-47
2023/06/21 05:05:09;;;;;;;13.48;11.48;;;21.50;87.40;;;;;;4987783;28;20403;-51
2023/06/21 05:07:37;;;;;;;11.70;10.57;;;21.60;87.30;;;;;;4992669;28;20390;-49
2023/06/21 05:10:09;;;;;;;11.95;10.70;;;21.60;87.10;;;;;;4987661;28;20046;-49
2023/06/21 05:12:36;;;;;;;12.48;11.02;;;21.70;87.20;;;;;;4985146;28;20039;-51
2023/06/21 05:15:05;;;;;;;11.57;10.38;;;21.70;87.00;;;;;;4981302;28;20050;-48
2023/06/21 05:17:34;;;;;;;12.63;11.32;;;21.70;87.00;;;;;;4987707;28;20108;-47
2023/06/21 05:20:05;;;;;;;13.45;10.57;;;21.70;87.00;;;;;;4984460;28;20126;-48
2023/06/21 05:22:32;;;;;;;13.60;11.20;;;21.80;87.10;;;;;;4985956;28;20065;-46
2023/06/21 05:25:02;;;;;;;11.73;10.52;;;21.80;87.00;;;;;;4985216;28;20034;-47
2023/06/21 05:27:32;;;;;;;12.98;10.80;;;21.80;87.10;;;;;;4985726;28;20056;-51
2023/06/21 05:30:00;;;;;;;12.45;11.07;;;21.80;87.10;;;;;;4982152;28;20043;-47
2023/06/21 05:32:30;;;;;;;12.18;10.93;;;21.80;87.20;;;;;;4985334;28;20518;-47
2023/06/21 05:34:56;;;;;;;13.48;11.90;;;21.90;87.30;;;;;;4985233;28;20046;-48
2023/06/21 05:37:23;;;;;;;12.60;11.38;;;21.90;87.30;;;;;;4987270;28;20537;-47
2023/06/21 05:39:50;;;;;;;13.25;11.35;;;21.90;87.30;;;;;;4984097;28;20554;-49
2023/06/21 05:42:17;;;;;;;12.48;11.15;;;22.00;87.40;;;;;;4984383;28;20472;-50
2023/06/21 05:44:44;;;;;;;14.10;12.43;;;22.00;87.50;;;;;;4988073;28;20117;-47
2023/06/21 05:47:11;;;;;;;13.93;10.95;;;22.10;87.40;;;;;;4985977;28;20073;-48
2023/06/21 05:49:37;;;;;;;13.65;12.05;;;22.10;87.20;;;;;;4985422;28;20064;-51
2023/06/21 05:52:04;;;;;;;14.25;12.35;;;22.10;87.10;;;;;;4986211;28;20130;-49
2023/06/21 05:54:37;;;;;;;13.73;11.82;;;22.10;87.20;;;;;;4988476;28;20129;-49
2023/06/21 05:57:04;;;;;;;13.23;11.93;;;22.10;87.20;;;;;;4989355;28;20483;-49
2023/06/21 05:59:31;;;;;;;14.77;12.35;;;22.20;87.20;;;;;;5010994;28;20081;-47
2023/06/21 06:01:58;;;;;;;13.32;12.00;;;22.20;87.40;;;;;;4996852;28;20133;-46
2023/06/21 06:04:24;;;;;;;13.32;11.93;;;22.20;87.50;;;;;;5000116;28;20065;-48
2023/06/21 06:06:51;;;;;;;16.95;12.60;;;22.30;87.70;;;;;;5006477;28;20073;-50
2023/06/21 06:09:19;;;;;;;13.27;11.98;;;22.30;87.90;;;;;;4996127;28;20415;-51
2023/06/21 06:11:46;;;;;;;14.27;12.93;;;22.40;88.30;;;;;;4988251;28;20133;-46
2023/06/21 06:14:12;;;;;;;14.98;13.07;;;22.50;88.40;;;;;;4991980;28;20104;-49
2023/06/21 06:16:39;;;;;;;13.85;12.45;;;22.50;88.40;;;;;;4998044;28;20073;-47
2023/06/21 06:19:06;;;;;;;16.70;12.77;;;22.60;88.70;;;;;;5003505;28;20498;-49
2023/06/21 06:21:32;;;;;;;16.63;13.85;;;22.70;88.80;;;;;;5012279;28;20066;-47
2023/06/21 06:24:01;;;;;;;14.90;12.68;;;22.80;89.20;;;;;;4998468;28;20093;-50
2023/06/21 06:26:30;;;;;;;15.38;13.13;;;22.90;89.10;;;;;;5008912;28;20096;-50
2023/06/21 06:28:57;;;;;;;14.85;13.32;;;23.00;89.00;;;;;;5012258;28;20498;-51
2023/06/21 06:31:29;;;;;;;16.75;14.98;;;23.00;88.60;;;;;;5005485;28;20047;-49
2023/06/21 06:33:56;;;;;;;16.75;14.00;;;23.10;88.70;;;;;;5000050;28;20052;-50
2023/06/21 06:36:23;;;;;;;16.08;13.23;;;23.20;88.10;;;;;;5004834;28;20050;-48
2023/06/21 06:38:51;;;;;;;14.73;13.13;;;23.30;88.10;;;;;;5012404;28;20056;-50
2023/06/21 06:41:20;;;;;;;14.95;13.43;;;23.30;87.70;;;;;;5012674;28;20062;-47
2023/06/21 06:43:46;;;;;;;15.88;14.15;;;23.30;87.70;;;;;;5012412;28;20026;-49
2023/06/21 06:46:14;;;;;;;16.88;13.30;;;23.40;87.60;;;;;;5005368;28;20039;-51
2023/06/21 06:48:40;;;;;;;13.73;12.43;;;23.40;87.00;;;;;;5000859;28;20038;-48
2023/06/21 06:51:07;;;;;;;16.33;14.23;;;23.50;86.50;;;;;;5013123;28;20425;-49
2023/06/21 06:53:34;;;;;;;16.50;14.27;;;23.50;86.60;;;;;;5002909;28;20050;-46
2023/06/21 06:56:01;;;;;;;16.15;14.45;;;23.50;87.00;;;;;;5000012;28;20052;-47
2023/06/21 06:58:28;;;;;;;18.10;15.95;;;23.50;87.30;;;;;;4993524;28;20130;-46
2023/06/21 07:00:55;;;;;;;19.23;14.32;;;23.60;87.20;;;;;;5020006;22;20562;-52
2023/06/21 07:03:22;;;;;;;17.65;14.88;;;23.60;86.50;;;;;;5016276;28;20492;-50
2023/06/21 07:05:49;;;;;;;17.73;15.90;;;23.70;86.50;;;;;;5015649;28;20084;-51
2023/06/21 07:08:16;;;;;;;19.27;17.23;;;23.70;86.60;;;;;;5009835;28;21410;-51
2023/06/21 07:10:43;;;;;;;19.05;17.15;;;23.70;87.00;;;;;;5021266;28;20041;-49
2023/06/21 07:13:09;;;;;;;19.40;17.45;;;23.80;87.20;;;;;;5023756;28;20050;-52
2023/06/21 07:15:36;;;;;;;20.58;18.38;;;23.80;86.90;;;;;;5014530;28;20041;-51
2023/06/21 07:18:03;;;;;;;22.27;19.95;;;23.90;86.00;;;;;;5010608;28;20050;-48
2023/06/21 07:20:30;;;;;;;22.70;20.38;;;23.90;85.00;;;;;;5011896;28;20042;-46
2023/06/21 07:22:58;;;;;;;22.95;20.55;;;23.90;84.90;;;;;;5006030;28;20046;-46
2023/06/21 07:25:25;;;;;;;24.05;21.63;;;23.90;84.10;;;;;;5005385;28;20052;-47
2023/06/21 07:27:52;;;;;;;23.20;20.15;;;23.90;84.10;;;;;;5007290;28;20053;-46
2023/06/21 07:30:20;;;;;;;21.05;18.98;;;23.90;84.00;;;;;;5011647;28;20443;-50
2023/06/21 07:32:47;;;;;;;21.73;19.63;;;24.00;83.90;;;;;;5011579;28;20134;-45
2023/06/21 07:35:15;;;;;;;21.90;19.55;;;24.00;84.60;;;;;;5006672;28;20074;-47
2023/06/21 07:37:43;;;;;;;21.55;18.98;;;24.10;83.30;;;;;;4999591;28;20053;-48
2023/06/21 07:40:11;;;;;;;20.45;17.80;;;24.20;83.10;;;;;;5013178;28;20038;-46
2023/06/21 07:42:38;;;;;;;22.00;16.67;;;24.20;82.10;;;;;;5011056;28;20038;-48
2023/06/21 07:45:07;;;;;;;17.63;15.98;;;24.30;81.90;;;;;;5007992;28;20038;-49
2023/06/21 07:47:34;;;;;;;15.82;14.13;;;24.40;81.20;;;;;;5011005;28;20081;-49
2023/06/21 07:50:02;;;;;;;15.82;14.27;;;24.40;80.00;;;;;;5014420;28;20064;-50
2023/06/21 07:52:42;;;;;;;13.85;12.38;;;24.50;79.90;;;;;;5019870;28;20156;-49
2023/06/21 07:55:11;;;;;;;12.18;10.88;;;24.60;79.30;;;;;;4999472;28;20077;-47
2023/06/21 07:57:38;;;;;;;15.20;12.00;;;24.70;78.40;;;;;;5010320;28;20092;-49
2023/06/21 08:00:11;;;;;;;13.48;11.93;;;24.70;77.80;;;;;;5011438;28;20489;-50
2023/06/21 08:02:40;;;;;;;14.10;11.55;;;24.80;77.00;;;;;;5007079;28;20038;-50
2023/06/21 08:05:07;;;;;;;12.60;11.18;;;24.80;77.00;;;;;;5013650;28;20045;-47
2023/06/21 08:07:34;;;;;;;14.23;12.73;;;24.80;76.90;;;;;;5011849;28;20058;-49
2023/06/21 08:10:01;;;;;;;13.48;11.63;;;24.90;76.60;;;;;;5011031;28;20924;-45
2023/06/21 08:12:27;;;;;;;13.60;12.15;;;24.90;76.30;;;;;;5004091;28;20057;-46
2023/06/21 08:14:54;;;;;;;13.00;11.55;;;24.90;75.70;;;;;;5011122;28;20081;-50
2023/06/21 08:17:21;;;;;;;13.82;12.40;;;24.90;75.30;;;;;;5010319;28;20041;-49
2023/06/21 08:19:47;;;;;;;13.50;11.77;;;24.90;75.20;;;;;;5010823;28;20084;-46
2023/06/21 08:22:14;;;;;;;12.82;11.48;;;25.00;75.00;;;;;;5009147;28;20046;-47
2023/06/21 08:24:41;;;;;;;13.50;11.32;;;25.00;75.30;;;;;;4986884;28;20050;-50
2023/06/21 08:27:08;;;;;;;13.10;11.60;;;25.00;75.60;;;;;;5010435;28;20041;-47
2023/06/21 08:29:34;;;;;;;13.32;11.93;;;25.10;74.90;;;;;;5010700;28;20121;-47
2023/06/21 08:32:01;;;;;;;12.77;11.52;;;25.10;74.30;;;;;;5007141;28;20128;-50
2023/06/21 08:34:28;;;;;;;14.45;11.18;;;25.20;74.70;;;;;;5008661;28;20125;-49
2023/06/21 08:36:55;;;;;;;12.52;11.27;;;25.20;74.00;;;;;;5012296;28;20052;-48
2023/06/21 08:39:21;;;;;;;12.48;11.18;;;25.20;74.20;;;;;;5027029;28;20042;-49
2023/06/21 08:41:48;;;;;;;12.57;11.27;;;25.30;74.00;;;;;;5008606;28;20038;-49
2023/06/21 08:44:15;;;;;;;12.25;10.73;;;25.30;73.10;;;;;;5008314;28;20468;-50
2023/06/21 08:46:42;;;;;;;12.32;11.02;;;25.30;72.50;;;;;;4996978;28;20125;-49
2023/06/21 08:49:16;;;;;;;11.90;10.70;;;25.40;73.20;;;;;;5018161;28;20128;-50
2023/06/21 08:51:45;;;;;;;14.95;12.30;;;25.40;72.30;;;;;;5017441;28;20045;-47
2023/06/21 08:54:14;;;;;;;14.30;13.00;;;25.50;72.90;;;;;;5017316;28;20053;-48
2023/06/21 08:56:48;;;;;;;15.48;13.88;;;25.50;72.40;;;;;;5012177;28;20414;-47
2023/06/21 08:59:53;;;;;;;12.90;11.60;;;25.50;72.10;;;;;;5010061;28;20038;-49
2023/06/21 09:02:42;;;;;;;12.55;11.07;;;25.60;70.90;;;;;;4965538;28;20488;-49
2023/06/21 09:05:14;;;;;;;12.05;10.35;;;25.60;70.70;;;;;;5009363;28;20046;-49
2023/06/21 09:07:41;;;;;;;12.45;11.15;;;25.60;70.70;;;;;;5009980;28;20061;-46
2023/06/21 09:10:08;;;;;;;12.95;11.85;;;25.60;70.50;;;;;;5010183;28;20122;-47
2023/06/21 09:12:37;;;;;;;13.02;11.82;;;25.60;71.10;;;;;;5003915;28;20464;-48
2023/06/21 09:15:05;;;;;;;12.18;10.98;;;25.60;70.90;;;;;;5009965;28;20049;-50
2023/06/21 09:17:33;;;;;;;12.40;11.10;;;25.60;70.70;;;;;;5009702;28;20470;-47
2023/06/21 09:20:02;;;;;;;12.10;10.85;;;25.60;72.10;;;;;;5009906;28;20100;-49
2023/06/21 09:22:30;;;;;;;12.57;11.27;;;25.60;71.70;;;;;;5007645;28;20038;-49
2023/06/21 09:24:57;;;;;;;12.25;11.05;;;25.70;71.40;;;;;;5010963;28;20092;-49
2023/06/21 09:27:24;;;;;;;11.65;10.55;;;25.80;70.70;;;;;;5008863;28;20133;-49
2023/06/21 09:29:50;;;;;;;11.85;10.85;;;25.80;71.10;;;;;;5009774;28;20042;-47
2023/06/21 09:32:17;;;;;;;10.98;9.98;;;25.90;69.90;;;;;;5009404;28;20061;-46
2023/06/21 09:34:44;;;;;;;12.63;11.43;;;25.90;68.80;;;;;;5007551;28;20046;-48
2023/06/21 09:37:30;;;;;;;10.32;9.40;;;25.90;68.20;;;;;;5009185;28;20133;-47
2023/06/21 09:39:57;;;;;;;10.48;9.48;;;26.00;68.30;;;;;;5009975;28;20053;-46
2023/06/21 09:42:25;;;;;;;10.23;9.10;;;26.00;69.70;;;;;;5003906;28;20061;-47
2023/06/21 09:44:53;;;;;;;8.93;7.97;;;26.10;68.80;;;;;;5010026;28;20053;-47
2023/06/21 09:47:22;;;;;;;8.23;7.50;;;26.30;67.90;;;;;;5009075;28;20042;-47
2023/06/21 09:49:49;;;;;;;8.73;7.82;;;26.20;67.40;;;;;;5008827;28;20050;-48
2023/06/21 09:52:22;;;;;;;9.80;8.90;;;26.20;67.30;;;;;;5008392;28;20050;-49
2023/06/21 09:54:50;;;;;;;7.93;7.18;;;26.20;67.30;;;;;;5003876;28;20045;-50
2023/06/21 09:57:17;;;;;;;7.50;6.85;;;26.20;67.20;;;;;;5009095;28;20469;-48
2023/06/21 09:59:48;;;;;;;7.60;6.93;;;26.30;67.60;;;;;;5008843;28;20042;-48
2023/06/21 10:02:15;;;;;;;9.27;7.03;;;26.30;66.20;;;;;;5007709;28;20073;-50
2023/06/21 10:04:44;;;;;;;7.05;6.45;;;26.30;66.50;;;;;;5005177;28;20700;-50
2023/06/21 10:07:14;;;;;;;7.32;6.72;;;26.30;66.80;;;;;;4989518;28;20056;-49
2023/06/21 10:09:41;;;;;;;6.55;5.95;;;26.40;66.50;;;;;;5007976;28;20050;-50
2023/06/21 10:12:11;;;;;;;7.63;6.80;;;26.40;66.70;;;;;;5008173;28;20068;-50
2023/06/21 10:14:40;;;;;;;6.40;5.80;;;26.40;65.70;;;;;;5003698;28;20077;-50
2023/06/21 10:17:08;;;;;;;6.72;6.13;;;26.50;65.20;;;;;;5008503;28;20049;-48
2023/06/21 10:19:35;;;;;;;6.28;5.68;;;26.50;65.10;;;;;;5008549;28;20048;-47
2023/06/21 10:22:05;;;;;;;6.68;5.97;;;26.50;65.10;;;;;;5007458;28;20045;-49
2023/06/21 10:24:50;;;;;;;6.50;5.90;;;26.50;64.20;;;;;;5001419;28;20046;-49
2023/06/21 10:27:19;;;;;;;7.07;6.47;;;26.50;64.70;;;;;;5006185;28;20038;-50
2023/06/21 10:29:53;;;;;;;6.50;5.80;;;26.50;64.50;;;;;;5008357;28;20458;-50
2023/06/21 10:32:21;;;;;;;6.10;5.55;;;26.60;63.90;;;;;;5009944;28;20449;-50
2023/06/21 10:34:56;;;;;;;5.88;5.38;;;26.60;64.40;;;;;;5009441;28;20100;-49
2023/06/21 10:37:54;;;;;;;9.65;6.10;;;26.70;63.80;;;;;;5001919;28;20042;-50
2023/06/21 10:40:21;;;;;;;6.45;5.28;;;26.80;63.60;;;;;;4980915;28;20473;-47
2023/06/21 10:42:50;;;;;;;6.35;5.75;;;26.80;63.50;;;;;;5009477;28;20052;-50
2023/06/21 10:45:17;;;;;;;5.93;4.50;;;26.90;62.20;;;;;;5012831;28;20141;-49
2023/06/21 10:47:46;;;;;;;4.95;4.55;;;27.00;62.00;;;;;;5003789;28;20109;-50
2023/06/21 10:50:13;;;;;;;5.40;4.90;;;27.00;61.50;;;;;;5015460;28;20046;-46
2023/06/21 10:52:41;;;;;;;6.15;5.55;;;27.10;61.70;;;;;;5011767;28;20502;-50
2023/06/21 10:55:08;;;;;;;5.90;5.32;;;27.20;60.70;;;;;;5010382;28;20447;-50
2023/06/21 10:57:35;;;;;;;5.07;4.45;;;27.30;60.40;;;;;;5008119;28;20049;-50
2023/06/21 11:00:07;;;;;;;4.55;3.95;;;27.40;59.90;;;;;;5011219;28;20141;-49
2023/06/21 11:02:34;;;;;;;4.90;3.95;;;27.50;59.20;;;;;;5011209;28;20074;-50
2023/06/21 11:05:21;;;;;;;5.30;4.28;;;27.60;59.40;;;;;;5012988;28;20128;-48
2023/06/21 11:07:55;;;;;;;5.68;4.20;;;27.70;59.20;;;;;;5010091;28;20033;-50
2023/06/21 11:10:43;;;;;;;7.32;5.45;;;27.80;59.90;;;;;;4994100;28;20053;-49
2023/06/21 11:13:11;;;;;;;5.80;5.30;;;28.00;59.10;;;;;;5011063;28;20442;-50
2023/06/21 11:15:42;;;;;;;5.53;5.03;;;28.10;58.80;;;;;;5018758;28;20041;-50
2023/06/21 11:18:10;;;;;;;5.20;4.70;;;28.10;58.00;;;;;;5010128;28;20073;-50
2023/06/21 11:20:48;;;;;;;5.50;5.00;;;28.20;57.60;;;;;;5017951;28;20573;-50
2023/06/21 11:23:21;;;;;;;5.35;4.85;;;28.20;56.60;;;;;;5011211;28;20050;-49
2023/06/21 11:26:15;;;;;;;4.10;3.80;;;28.20;57.20;;;;;;5021653;28;20112;-51
2023/06/21 11:28:47;;;;;;;3.88;3.47;;;28.30;56.50;;;;;;5007768;28;20061;-50
2023/06/21 11:31:17;;;;;;;;;;;28.40;56.90;;;;;;4999803;28;20553;-50
2023/06/21 11:33:53;;;;;;;4.53;4.15;;;28.50;58.80;;;;;;5006956;28;19961;-50
2023/06/21 11:36:27;;;;;;;6.10;4.65;;;28.60;57.30;;;;;;5012161;28;20103;-50
2023/06/21 11:39:10;;;;;;;4.95;4.45;;;28.70;56.70;;;;;;5009108;28;20168;-50
2023/06/21 11:41:45;;;;;;;4.93;4.53;;;28.80;55.50;;;;;;5005507;28;20133;-47
2023/06/21 11:44:25;;;;;;;4.57;4.18;;;28.90;55.20;;;;;;4988622;28;20096;-51
2023/06/21 11:47:04;;;;;;;4.68;4.18;;;28.90;54.80;;;;;;5010967;28;20474;-50
2023/06/21 11:49:32;;;;;;;5.90;4.10;;;28.90;54.80;;;;;;5007025;28;20463;-49
2023/06/21 11:52:05;;;;;;;4.68;3.72;;;28.90;54.40;;;;;;5011581;28;20042;-51
2023/06/21 11:54:36;;;;;;;4.30;3.90;;;28.90;53.50;;;;;;5007024;28;20053;-51
2023/06/21 11:57:06;;;;;;;4.75;4.35;;;28.90;54.20;;;;;;5012251;28;20080;-51
2023/06/21 11:59:35;;;;;;;3.63;3.33;;;28.90;53.60;;;;;;5010514;28;20117;-49
2023/06/21 12:02:21;;;;;;;4.25;3.85;;;28.90;54.40;;;;;;5006479;28;20145;-51
2023/06/21 12:04:49;;;;;;;3.85;3.55;;;29.00;53.60;;;;;;5010244;28;20406;-51
2023/06/21 12:07:19;;;;;;;4.47;3.85;;;28.90;54.10;;;;;;5011003;28;20045;-48
2023/06/21 12:09:49;;;;;;;4.35;3.95;;;29.00;53.30;;;;;;5010060;28;20575;-50
2023/06/21 12:12:23;;;;;;;4.57;4.18;;;29.00;53.30;;;;;;5005054;28;20042;-51
2023/06/21 12:14:50;;;;;;;4.40;3.40;;;29.00;54.00;;;;;;5011965;28;20038;-47
2023/06/21 12:17:20;;;;;;;4.10;3.65;;;29.10;52.80;;;;;;5016818;28;20111;-50
2023/06/21 12:19:46;;;;;;;3.80;3.50;;;29.10;53.20;;;;;;5010377;28;20528;-52
2023/06/21 12:22:14;;;;;;;3.58;3.28;;;29.20;53.40;;;;;;5009888;28;20042;-48
2023/06/21 12:24:41;;;;;;;3.95;3.65;;;29.30;53.70;;;;;;5006270;28;20116;-51
2023/06/21 12:27:13;;;;;;;4.75;3.35;;;29.40;53.10;;;;;;5011264;28;20514;-51
2023/06/21 12:29:50;;;;;;;3.97;3.67;;;29.50;52.50;;;;;;5018107;28;20120;-48
2023/06/21 12:32:19;;;;;;;3.58;3.28;;;29.60;51.20;;;;;;5015448;28;20041;-51
2023/06/21 12:34:46;;;;;;;3.10;2.85;;;29.70;51.70;;;;;;5019109;28;20057;-51
2023/06/21 12:37:19;;;;;;;2.65;2.45;;;29.70;52.20;;;;;;5002814;28;20038;-51
2023/06/21 12:39:50;;;;;;;2.60;2.40;;;29.80;50.10;;;;;;4997408;28;20038;-52
2023/06/21 12:42:19;;;;;;;2.97;2.78;;;29.90;50.30;;;;;;5007157;28;20045;-51
2023/06/21 12:44:46;;;;;;;2.90;2.63;;;30.00;50.90;;;;;;5011088;28;20046;-52
2023/06/21 12:47:14;;;;;;;3.28;3.03;;;30.00;50.40;;;;;;5011430;28;20104;-52
2023/06/21 12:49:46;;;;;;;3.50;2.40;;;30.10;50.10;;;;;;5007025;28;20034;-51
2023/06/21 12:52:13;;;;;;;2.80;2.60;;;30.20;50.10;;;;;;5010492;28;20061;-52